Aviation Digital Data Service (ADDS)

Output produced by METARs form (2122 UTC 31 January 2023)
found at http://www.aviationweather.gov/metar/data/
 
KJAX 312056Z 07010KT 10SM FEW010 SCT048 BKN075 BKN250 26/19 A3011 RMK AO2 SLP195 T02560194 55019
KJAX 312054Z 3121/0118 13007KT P6SM SCT050 SCT250 
     FM010300 21003KT P6SM FEW070 SCT250 
     FM010800 00000KT 3SM BR BKN004 
     TEMPO 0110/0113 1SM BR 
     FM011400 26003KT 6SM BR BKN007 
     FM011600 27005KT P6SM SCT015 BKN035